Maryhope 2 — WDD3837 — position and weather

sailwx.info

Track history (hours):
 
Tides and Currents Weather Stations Pressure Air Temp Water Temp Dewpoint Dewpoint Depression Visibility Wind Speed Wind Dir Waves Ship Positions

Maryhope 2

Owner: W.F.MAGANN CORP, PORTSMOUTH, VA. More information available from US FCC via Universal Licensing System and Coast Guard Vessel Documentation Center.

Last reported at 2018-Feb-19 20:31 UTC. Time now 2018-Feb-20 07:27 UTC.
Position N 36°51' W 076°21'.

Length 21 m.

Type: Tug. MMSI: 367136880.

Date/timePositionNaut miles runAvg speedWind from/ knotsBaromVisibWave heightAir tempDewpointWater temp
2018-Feb-19 20:31N 36°51' W 076°21'0 0.0
2018-Feb-19 20:30N 36°51' W 076°21'3 6.4
2018-Feb-19 20:00N 36°50' W 076°18'2 2.8
2018-Feb-19 19:28N 36°48' W 076°18'0 0.0
2018-Feb-19 18:58N 36°48' W 076°18'0 0.0
2018-Feb-19 18:28N 36°48' W 076°18'2 3.7
2018-Feb-19 18:00N 36°50' W 076°18'3 2.8
2018-Feb-19 16:57N 36°51' W 076°21'0 0.2
2018-Feb-19 16:23N 36°51' W 076°21'0 0.0
2018-Feb-19 15:57N 36°51' W 076°21'0 0.0
2018-Feb-19 15:30N 36°51' W 076°21'0 0.1
2018-Feb-19 14:59N 36°52' W 076°21'0 0.0
2018-Feb-19 14:26N 36°52' W 076°21'0 0.0
2018-Feb-19 14:00N 36°52' W 076°21'0 0.1
2018-Feb-19 13:24N 36°51' W 076°21'0 0.0
2018-Feb-17 16:56N 36°51' W 076°21'0 0.0
2018-Feb-17 16:26N 36°51' W 076°21'0 0.0
2018-Feb-17 15:36N 36°51' W 076°21'0 0.2
2018-Feb-17 15:27N 36°51' W 076°21'0 0.1
2018-Feb-17 14:55N 36°51' W 076°21'0 0.1
2018-Feb-17 14:29N 36°51' W 076°21'0 0.0
2018-Feb-17 13:59N 36°51' W 076°21'0 0.0
2018-Feb-17 13:29N 36°51' W 076°21'0 0.0
2018-Feb-17 12:59N 36°51' W 076°21'0 0.0
2018-Feb-17 12:28N 36°51' W 076°21'0 0.0
2018-Feb-16 18:58N 36°51' W 076°21'0 0.0
2018-Feb-15 21:02N 36°51' W 076°21'0 0.4
2018-Feb-15 20:52N 36°51' W 076°21'2 5.1
2018-Feb-15 20:30N 36°53' W 076°20'4 7.0
2018-Feb-15 19:59N 36°57' W 076°20'3 6.0
2018-Feb-15 19:29N 36°60' W 076°19'3 5.7
2018-Feb-15 18:58N 37°02' W 076°17'4 6.8
2018-Feb-15 18:26N 37°05' W 076°16'3 6.5
2018-Feb-15 17:55N 37°06' W 076°20'1 2.2
2018-Feb-15 17:29N 37°05' W 076°20'2 4.7
2018-Feb-15 16:58N 37°07' W 076°18'3 5.8
2018-Feb-15 16:27N 37°04' W 076°15'4 8.7
2018-Feb-15 15:57N 37°00' W 076°18'4 8.7
2018-Feb-15 15:27N 36°57' W 076°20'4 8.6
2018-Feb-15 15:00N 36°53' W 076°20'2 3.0
2018-Feb-15 14:29N 36°51' W 076°21'0 0.0
2018-Feb-15 13:59N 36°51' W 076°21'0 0.0
2018-Feb-15 13:29N 36°51' W 076°21'0 0.0
2018-Feb-14 22:17N 36°51' W 076°21'0 0.0
2018-Feb-14 21:56N 36°51' W 076°21'0 0.0
2018-Feb-14 21:25N 36°51' W 076°21'2 3.7
2018-Feb-14 20:46N 36°54' W 076°20'2 1.0
2018-Feb-14 18:39N 36°56' W 076°20'2 9.1
2018-Feb-14 18:24N 36°54' W 076°20'4 8.7
2018-Feb-14 17:57N 36°50' W 076°18'1 2.3
2018-Feb-14 17:27N 36°49' W 076°18'0 0.0
2018-Feb-14 16:59N 36°49' W 076°18'2 4.6
2018-Feb-14 16:30N 36°51' W 076°18'2 0.1
2018-Feb-13 22:50N 36°51' W 076°21'3 7.6
2018-Feb-13 22:29N 36°51' W 076°18'1 0.5
2018-Feb-13 21:19N 36°50' W 076°18'0 0.1
2018-Feb-13 20:55N 36°50' W 076°18'0 0.0
2018-Feb-13 20:10N 36°50' W 076°18'0 0.7
2018-Feb-13 19:59N 36°50' W 076°18'0 0.8
2018-Feb-13 19:30N 36°50' W 076°18'0 0.1
2018-Feb-13 19:00N 36°50' W 076°18'0 0.1
2018-Feb-13 18:26N 36°50' W 076°17'1 1.2
2018-Feb-13 18:00N 36°50' W 076°18'0 0.1
2018-Feb-13 17:30N 36°50' W 076°18'1 1.1
2018-Feb-13 17:00N 36°50' W 076°18'0 0.3
2018-Feb-13 16:26N 36°50' W 076°17'0 0.0
2018-Feb-13 15:56N 36°50' W 076°17'0 0.0
2018-Feb-13 15:29N 36°50' W 076°17'0 0.0
2018-Feb-13 14:47N 36°50' W 076°17'0 0.0
2018-Feb-13 14:29N 36°50' W 076°17'0 0.1
2018-Feb-13 13:52N 36°50' W 076°17'0 0.0
2018-Feb-13 13:29N 36°50' W 076°17'0 0.0
2018-Feb-13 12:57N 36°50' W 076°17'0 0.4
2018-Feb-13 12:30N 36°50' W 076°18'0 0.9
2018-Feb-13 12:00N 36°50' W 076°18'0 0.0
2018-Feb-13 11:30N 36°50' W 076°18'1 2.6
2018-Feb-13 10:59N 36°51' W 076°19'2 0.1
2018-Feb-12 20:00N 36°51' W 076°21'0 0.1
2018-Feb-12 19:29N 36°51' W 076°21'0 0.0
2018-Feb-12 14:16N 36°51' W 076°21'0 0.0
2018-Feb-12 13:22N 36°51' W 076°21'0 0.0
2018-Feb-12 12:58N 36°51' W 076°21'  
Track history (hours):
 
Tides and Currents Weather Stations Pressure Air Temp Water Temp Dewpoint Dewpoint Depression Visibility Wind Speed Wind Dir Waves Ship Positions

Maryhope 2

Owner: W.F.MAGANN CORP, PORTSMOUTH, VA. More information available from US FCC via Universal Licensing System and Coast Guard Vessel Documentation Center.

Last reported at 2018-Feb-19 20:31 UTC. Time now 2018-Feb-20 07:27 UTC.
Position N 36°51' W 076°21'.

Length 21 m.

Type: Tug. MMSI: 367136880.

Date/timePositionNaut miles runAvg speedWind from/ knotsBaromVisibWave heightAir tempDewpointWater temp
2018-Feb-19 20:31N 36°51' W 076°21'0 0.0
2018-Feb-19 20:30N 36°51' W 076°21'3 6.4
2018-Feb-19 20:00N 36°50' W 076°18'2 2.8
2018-Feb-19 19:28N 36°48' W 076°18'0 0.0
2018-Feb-19 18:58N 36°48' W 076°18'0 0.0
2018-Feb-19 18:28N 36°48' W 076°18'2 3.7
2018-Feb-19 18:00N 36°50' W 076°18'3 2.8
2018-Feb-19 16:57N 36°51' W 076°21'0 0.2
2018-Feb-19 16:23N 36°51' W 076°21'0 0.0
2018-Feb-19 15:57N 36°51' W 076°21'0 0.0
2018-Feb-19 15:30N 36°51' W 076°21'0 0.1
2018-Feb-19 14:59N 36°52' W 076°21'0 0.0
2018-Feb-19 14:26N 36°52' W 076°21'0 0.0
2018-Feb-19 14:00N 36°52' W 076°21'0 0.1
2018-Feb-19 13:24N 36°51' W 076°21'0 0.0
2018-Feb-17 16:56N 36°51' W 076°21'0 0.0
2018-Feb-17 16:26N 36°51' W 076°21'0 0.0
2018-Feb-17 15:36N 36°51' W 076°21'0 0.2
2018-Feb-17 15:27N 36°51' W 076°21'0 0.1
2018-Feb-17 14:55N 36°51' W 076°21'0 0.1
2018-Feb-17 14:29N 36°51' W 076°21'0 0.0
2018-Feb-17 13:59N 36°51' W 076°21'0 0.0
2018-Feb-17 13:29N 36°51' W 076°21'0 0.0
2018-Feb-17 12:59N 36°51' W 076°21'0 0.0
2018-Feb-17 12:28N 36°51' W 076°21'0 0.0
2018-Feb-16 18:58N 36°51' W 076°21'0 0.0
2018-Feb-15 21:02N 36°51' W 076°21'0 0.4
2018-Feb-15 20:52N 36°51' W 076°21'2 5.1
2018-Feb-15 20:30N 36°53' W 076°20'4 7.0
2018-Feb-15 19:59N 36°57' W 076°20'3 6.0
2018-Feb-15 19:29N 36°60' W 076°19'3 5.7
2018-Feb-15 18:58N 37°02' W 076°17'4 6.8
2018-Feb-15 18:26N 37°05' W 076°16'3 6.5
2018-Feb-15 17:55N 37°06' W 076°20'1 2.2
2018-Feb-15 17:29N 37°05' W 076°20'2 4.7
2018-Feb-15 16:58N 37°07' W 076°18'3 5.8
2018-Feb-15 16:27N 37°04' W 076°15'4 8.7
2018-Feb-15 15:57N 37°00' W 076°18'4 8.7
2018-Feb-15 15:27N 36°57' W 076°20'4 8.6
2018-Feb-15 15:00N 36°53' W 076°20'2 3.0
2018-Feb-15 14:29N 36°51' W 076°21'0 0.0
2018-Feb-15 13:59N 36°51' W 076°21'0 0.0
2018-Feb-15 13:29N 36°51' W 076°21'0 0.0
2018-Feb-14 22:17N 36°51' W 076°21'0 0.0
2018-Feb-14 21:56N 36°51' W 076°21'0 0.0
2018-Feb-14 21:25N 36°51' W 076°21'2 3.7
2018-Feb-14 20:46N 36°54' W 076°20'2 1.0
2018-Feb-14 18:39N 36°56' W 076°20'2 9.1
2018-Feb-14 18:24N 36°54' W 076°20'4 8.7
2018-Feb-14 17:57N 36°50' W 076°18'1 2.3
2018-Feb-14 17:27N 36°49' W 076°18'0 0.0
2018-Feb-14 16:59N 36°49' W 076°18'2 4.6
2018-Feb-14 16:30N 36°51' W 076°18'2 0.1
2018-Feb-13 22:50N 36°51' W 076°21'3 7.6
2018-Feb-13 22:29N 36°51' W 076°18'1 0.5
2018-Feb-13 21:19N 36°50' W 076°18'0 0.1
2018-Feb-13 20:55N 36°50' W 076°18'0 0.0
2018-Feb-13 20:10N 36°50' W 076°18'0 0.7
2018-Feb-13 19:59N 36°50' W 076°18'0 0.8
2018-Feb-13 19:30N 36°50' W 076°18'0 0.1
2018-Feb-13 19:00N 36°50' W 076°18'0 0.1
2018-Feb-13 18:26N 36°50' W 076°17'1 1.2
2018-Feb-13 18:00N 36°50' W 076°18'0 0.1
2018-Feb-13 17:30N 36°50' W 076°18'1 1.1
2018-Feb-13 17:00N 36°50' W 076°18'0 0.3
2018-Feb-13 16:26N 36°50' W 076°17'0 0.0
2018-Feb-13 15:56N 36°50' W 076°17'0 0.0
2018-Feb-13 15:29N 36°50' W 076°17'0 0.0
2018-Feb-13 14:47N 36°50' W 076°17'0 0.0
2018-Feb-13 14:29N 36°50' W 076°17'0 0.1
2018-Feb-13 13:52N 36°50' W 076°17'0 0.0
2018-Feb-13 13:29N 36°50' W 076°17'0 0.0
2018-Feb-13 12:57N 36°50' W 076°17'0 0.4
2018-Feb-13 12:30N 36°50' W 076°18'0 0.9
2018-Feb-13 12:00N 36°50' W 076°18'0 0.0
2018-Feb-13 11:30N 36°50' W 076°18'1 2.6
2018-Feb-13 10:59N 36°51' W 076°19'2 0.1
2018-Feb-12 20:00N 36°51' W 076°21'0 0.1
2018-Feb-12 19:29N 36°51' W 076°21'0 0.0
2018-Feb-12 14:16N 36°51' W 076°21'0 0.0
2018-Feb-12 13:22N 36°51' W 076°21'0 0.0
2018-Feb-12 12:58N 36°51' W 076°21'  

Dump ship's entire track history